createdAt,value
2019-04-20T00:00:39.709Z,34.90
2019-04-20T00:03:05.762Z,35.00
2019-04-20T00:05:35.219Z,35.30
2019-04-20T00:08:08.931Z,35.40
2019-04-20T00:10:46.489Z,35.50
2019-04-20T00:13:19.420Z,35.60
2019-04-20T00:15:40.919Z,35.70
2019-04-20T00:18:12.192Z,35.80
2019-04-20T00:20:43.851Z,36.00
2019-04-20T00:23:26.903Z,36.00
2019-04-20T00:26:14.881Z,36.20
2019-04-20T00:28:58.915Z,36.30
2019-04-20T00:31:24.510Z,35.20
2019-04-20T00:36:24.353Z,36.40
2019-04-20T00:38:58.239Z,36.50
2019-04-20T00:41:25.834Z,36.80
2019-04-20T00:43:57.798Z,36.80
2019-04-20T00:46:34.013Z,37.60
2019-04-20T00:49:08.865Z,37.30
2019-04-20T00:51:46.649Z,37.30
2019-04-20T00:54:02.282Z,37.30
2019-04-20T00:56:32.956Z,37.50
2019-04-20T00:59:13.012Z,38.20
2019-04-20T01:01:53.497Z,37.70
2019-04-20T01:04:23.826Z,37.80
2019-04-20T01:06:58.954Z,37.80
2019-04-20T01:09:20.339Z,38.00
2019-04-20T01:11:51.301Z,38.20
2019-04-20T01:14:30.516Z,38.10
2019-04-20T01:17:00.043Z,38.40
2019-04-20T01:19:23.928Z,38.70
2019-04-20T01:22:01.107Z,38.70
2019-04-20T01:24:31.326Z,38.80
2019-04-20T01:27:00.416Z,38.80
2019-04-20T01:29:38.420Z,38.80
2019-04-20T01:32:10.445Z,39.00
2019-04-20T01:34:41.398Z,39.20
2019-04-20T01:37:13.996Z,39.60
2019-04-20T01:39:37.171Z,39.20
2019-04-20T01:42:02.866Z,39.50
2019-04-20T01:44:38.781Z,39.50
2019-04-20T01:47:06.535Z,39.90
2019-04-20T01:49:36.826Z,39.80
2019-04-20T01:52:17.329Z,40.00
2019-04-20T01:55:02.595Z,40.20
2019-04-20T01:57:27.224Z,40.50
2019-04-20T02:00:00.593Z,40.70
2019-04-20T02:02:28.328Z,40.50
2019-04-20T02:05:06.627Z,40.80
2019-04-20T02:07:36.663Z,40.90
2019-04-20T02:10:05.083Z,41.10
2019-04-20T02:12:35.739Z,41.20
2019-04-20T02:15:09.064Z,41.40
2019-04-20T02:17:43.529Z,41.50
2019-04-20T02:20:31.583Z,41.30
2019-04-20T02:22:56.983Z,41.60
2019-04-20T02:25:12.275Z,41.70
2019-04-20T02:27:48.584Z,42.40
2019-04-20T02:30:47.835Z,42.10
2019-04-20T02:33:29.555Z,42.60
2019-04-20T02:36:04.857Z,41.30
2019-04-20T02:38:40.673Z,42.10
2019-04-20T02:43:41.923Z,42.50
2019-04-20T02:45:50.532Z,42.80
2019-04-20T02:48:29.780Z,42.60
2019-04-20T02:50:59.525Z,42.80
2019-04-20T02:53:41.441Z,42.80
2019-04-20T02:56:04.891Z,43.20
2019-04-20T02:58:31.205Z,43.30
2019-04-20T03:00:52.664Z,43.40
2019-04-20T03:03:17.008Z,43.50
2019-04-20T03:05:43.212Z,43.50
2019-04-20T03:08:22.162Z,43.60
2019-04-20T03:11:02.267Z,43.90
2019-04-20T03:13:32.217Z,44.10
2019-04-20T03:16:01.833Z,44.20
2019-04-20T03:18:34.001Z,44.40
2019-04-20T03:21:05.379Z,44.60
2019-04-20T03:23:52.167Z,44.30
2019-04-20T03:26:15.095Z,44.70
2019-04-20T03:28:56.705Z,44.90
2019-04-20T03:34:50.097Z,45.40
2019-04-20T03:36:53.057Z,44.00
2019-04-20T03:39:13.867Z,45.10
2019-04-20T03:41:35.216Z,45.50
2019-04-20T03:44:03.148Z,45.80
2019-04-20T03:46:39.474Z,45.80
2019-04-20T03:49:22.799Z,46.20
2019-04-20T03:51:53.525Z,46.60
2019-04-20T03:54:29.802Z,46.80
2019-04-20T03:57:17.044Z,47.00
2019-04-20T03:59:50.913Z,47.00
2019-04-20T04:02:47.925Z,47.70
2019-04-20T04:05:10.467Z,47.60
2019-04-20T04:07:30.481Z,47.70
2019-04-20T04:10:10.928Z,47.90
2019-04-20T04:13:09.761Z,48.00
2019-04-20T04:15:47.934Z,48.00
2019-04-20T04:18:23.043Z,48.00
2019-04-20T04:20:56.560Z,48.40
2019-04-20T04:23:38.269Z,48.30
2019-04-20T04:26:10.368Z,48.70
2019-04-20T04:28:40.696Z,48.80
2019-04-20T04:31:24.610Z,49.10
2019-04-20T04:36:12.967Z,49.20
2019-04-20T04:38:49.606Z,49.40
2019-04-20T04:43:49.930Z,49.80
2019-04-20T04:46:02.141Z,50.80
2019-04-20T04:48:36.315Z,49.70
2019-04-20T04:51:08.970Z,49.90
2019-04-20T04:53:45.197Z,50.10
2019-04-20T04:56:10.962Z,50.00
2019-04-20T04:58:36.610Z,50.20
2019-04-20T05:01:11.681Z,50.20
2019-04-20T05:04:05.557Z,50.50
2019-04-20T05:06:26.443Z,50.50
2019-04-20T05:08:45.378Z,50.40
2019-04-20T05:11:13.152Z,51.00
2019-04-20T05:13:52.330Z,50.90
2019-04-20T05:16:36.026Z,50.80
2019-04-20T05:19:10.412Z,50.90
2019-04-20T05:21:39.808Z,51.00
2019-04-20T05:24:27.027Z,50.90
2019-04-20T05:27:10.036Z,51.00
2019-04-20T05:29:24.953Z,51.00
2019-04-20T05:31:55.889Z,51.30
2019-04-20T05:34:45.350Z,51.50
2019-04-20T05:37:25.221Z,51.50
2019-04-20T05:39:47.401Z,51.20
2019-04-20T05:42:20.308Z,51.20
2019-04-20T05:44:54.173Z,51.30
2019-04-20T05:47:19.551Z,51.30
2019-04-20T05:49:46.845Z,51.40
2019-04-20T05:54:50.875Z,50.70
2019-04-20T05:57:30.171Z,51.00
2019-04-20T06:00:02.196Z,50.80
2019-04-20T06:02:29.439Z,50.50
2019-04-20T06:07:34.729Z,50.50
2019-04-20T06:09:59.896Z,50.40
2019-04-20T06:12:31.852Z,50.40
2019-04-20T06:15:11.697Z,50.20
2019-04-20T06:18:07.046Z,49.80
2019-04-20T06:20:46.726Z,49.90
2019-04-20T06:23:33.589Z,49.90
2019-04-20T06:26:24.682Z,49.70
2019-04-20T06:28:33.768Z,49.70
2019-04-20T06:31:08.866Z,49.60
2019-04-20T06:36:55.293Z,49.50
2019-04-20T06:39:19.972Z,49.20
2019-04-20T06:44:28.951Z,49.00
2019-04-20T06:47:01.375Z,49.00
2019-04-20T06:49:31.406Z,48.90
2019-04-20T06:52:04.517Z,48.90
2019-04-20T06:54:48.527Z,48.80
2019-04-20T06:57:27.082Z,48.70
2019-04-20T07:02:38.643Z,48.60
2019-04-20T07:05:00.192Z,48.60
2019-04-20T07:07:33.515Z,48.50
2019-04-20T07:10:08.794Z,48.50
2019-04-20T07:12:27.160Z,48.50
2019-04-20T07:14:54.158Z,48.50
2019-04-20T07:20:09.960Z,47.90
2019-04-20T07:23:11.639Z,47.90
2019-04-20T07:25:14.401Z,47.80
2019-04-20T07:27:49.012Z,48.00
2019-04-20T07:30:18.977Z,47.20
2019-04-20T07:35:23.261Z,47.10
2019-04-20T07:40:24.500Z,46.80
2019-04-20T07:42:55.537Z,46.60
2019-04-20T07:45:29.510Z,46.60
2019-04-20T07:48:07.830Z,46.30
2019-04-20T07:50:25.134Z,46.20
2019-04-20T07:52:54.510Z,46.30
2019-04-20T07:55:44.717Z,46.20
2019-04-20T07:57:57.988Z,46.00
2019-04-20T08:00:48.253Z,46.10
2019-04-20T08:03:20.185Z,46.00
2019-04-20T08:05:52.521Z,45.90
2019-04-20T08:08:30.469Z,45.60
2019-04-20T08:11:02.634Z,45.50
2019-04-20T08:13:40.285Z,45.50
2019-04-20T08:16:06.711Z,45.20
2019-04-20T08:18:42.467Z,45.20
2019-04-20T08:21:12.321Z,45.10
2019-04-20T08:23:38.898Z,44.90
2019-04-20T08:26:01.766Z,44.90
2019-04-20T08:28:43.830Z,44.70
2019-04-20T08:31:35.827Z,44.60
2019-04-20T08:34:31.428Z,44.50
2019-04-20T08:37:01.045Z,44.20
2019-04-20T08:42:20.510Z,44.20
2019-04-20T08:47:14.594Z,43.80
2019-04-20T08:49:52.231Z,43.80
2019-04-20T08:52:31.839Z,43.60
2019-04-20T08:54:34.384Z,43.60
2019-04-20T08:56:55.376Z,43.50
2019-04-20T08:59:23.351Z,43.40
2019-04-20T09:01:53.525Z,43.30
2019-04-20T09:04:33.733Z,43.20
2019-04-20T09:07:06.479Z,43.00
2019-04-20T09:10:00.377Z,43.00
2019-04-20T09:12:15.870Z,42.90
2019-04-20T09:14:28.717Z,42.70
2019-04-20T09:17:08.100Z,42.70
2019-04-20T09:19:45.052Z,42.60
2019-04-20T09:22:34.283Z,42.50
2019-04-20T09:25:40.639Z,42.40
2019-04-20T09:27:36.220Z,42.10
2019-04-20T09:30:09.123Z,42.00
2019-04-20T09:32:56.550Z,42.00
2019-04-20T09:35:30.179Z,41.70
2019-04-20T09:38:04.907Z,41.30
2019-04-20T09:40:41.653Z,41.10
2019-04-20T09:42:54.983Z,41.00
2019-04-20T09:45:33.903Z,40.80
2019-04-20T09:47:58.798Z,40.80
2019-04-20T09:50:50.023Z,40.50
2019-04-20T09:53:16.986Z,40.10
2019-04-20T09:55:42.948Z,39.70
2019-04-20T09:58:15.379Z,39.50
2019-04-20T10:00:58.246Z,39.00
2019-04-20T10:03:16.608Z,38.10
2019-04-20T10:05:47.458Z,38.40
2019-04-20T10:08:17.624Z,38.20
2019-04-20T10:10:48.933Z,37.50
2019-04-20T10:13:19.420Z,37.10
2019-04-20T10:15:50.008Z,37.00
2019-04-20T10:18:19.782Z,36.80
2019-04-20T10:20:49.650Z,36.90
2019-04-20T10:23:20.375Z,36.80
2019-04-20T10:25:50.943Z,36.60
2019-04-20T10:28:21.538Z,36.70
2019-04-20T10:30:52.546Z,36.20
2019-04-20T10:33:22.011Z,36.00
2019-04-20T10:35:51.866Z,35.70
2019-04-20T10:38:25.403Z,35.30
2019-04-20T10:41:04.477Z,35.40
2019-04-20T10:43:26.335Z,35.60
2019-04-20T10:45:57.082Z,35.30
2019-04-20T10:48:26.932Z,35.00
2019-04-20T10:50:56.924Z,35.10
2019-04-20T10:53:26.378Z,34.60
2019-04-20T10:55:55.790Z,34.50
2019-04-20T10:58:25.329Z,34.40
2019-04-20T11:00:55.721Z,34.40
2019-04-20T11:03:26.525Z,34.00
2019-04-20T11:05:56.473Z,33.80
2019-04-20T11:08:26.575Z,33.70
2019-04-20T11:11:07.147Z,33.70
2019-04-20T11:13:27.655Z,33.50
2019-04-20T11:15:57.038Z,33.50
2019-04-20T11:18:27.326Z,33.20
2019-04-20T11:20:57.469Z,32.90
2019-04-20T11:23:26.863Z,32.50
2019-04-20T11:25:56.245Z,32.50
2019-04-20T11:28:26.170Z,32.30
2019-04-20T11:30:56.320Z,32.40
2019-04-20T11:33:26.238Z,32.70
2019-04-20T11:35:57.077Z,32.50
2019-04-20T11:38:26.563Z,32.60
2019-04-20T11:41:09.926Z,32.50
2019-04-20T11:43:27.831Z,32.60
2019-04-20T11:45:58.337Z,32.40
2019-04-20T11:48:29.411Z,32.30
2019-04-20T11:50:58.946Z,32.20
2019-04-20T11:53:28.692Z,32.10
2019-04-20T11:56:00.450Z,31.80
2019-04-20T11:58:30.320Z,31.20
2019-04-20T12:01:10.149Z,30.80
2019-04-20T12:03:46.281Z,31.10
2019-04-20T12:06:07.047Z,31.00
2019-04-20T12:08:38.532Z,30.50
2019-04-20T12:11:20.421Z,30.50
2019-04-20T12:13:38.569Z,30.40
2019-04-20T12:16:09.762Z,30.00
2019-04-20T12:18:39.404Z,30.00
2019-04-20T12:21:08.787Z,29.90
2019-04-20T12:23:38.293Z,29.90
2019-04-20T12:26:08.898Z,29.70
2019-04-20T12:28:39.959Z,29.80
2019-04-20T12:31:13.695Z,29.80
2019-04-20T12:33:40.679Z,29.50
2019-04-20T12:36:10.308Z,29.80
2019-04-20T12:38:41.197Z,30.20
2019-04-20T12:41:14.041Z,29.50
2019-04-20T12:43:43.693Z,29.50
2019-04-20T12:46:16.524Z,29.50
2019-04-20T12:48:44.167Z,29.30
2019-04-20T12:51:13.560Z,28.80
2019-04-20T12:53:42.902Z,28.90
2019-04-20T12:56:12.835Z,29.00
2019-04-20T12:58:43.545Z,29.00
2019-04-20T13:01:14.248Z,28.90
2019-04-20T13:03:44.070Z,28.80
2019-04-20T13:06:14.065Z,28.70
2019-04-20T13:08:51.192Z,28.90
2019-04-20T13:11:18.396Z,28.90
2019-04-20T13:13:59.801Z,28.70
2019-04-20T13:16:30.827Z,28.70
2019-04-20T13:19:03.571Z,28.60
2019-04-20T13:21:33.091Z,28.40
2019-04-20T13:24:03.245Z,28.30
2019-04-20T13:26:33.220Z,28.10
2019-04-20T13:29:02.790Z,27.90
2019-04-20T13:31:33.776Z,27.90
2019-04-20T13:34:03.615Z,27.80
2019-04-20T13:36:34.474Z,27.80
2019-04-20T13:39:06.086Z,27.70
2019-04-20T13:41:35.855Z,27.70
2019-04-20T13:44:06.603Z,27.70
2019-04-20T13:46:37.233Z,27.80
2019-04-20T13:49:07.014Z,27.70
2019-04-20T13:51:36.950Z,27.50
2019-04-20T13:54:13.069Z,27.60
2019-04-20T13:56:39.603Z,27.40
2019-04-20T13:59:23.755Z,27.40
2019-04-20T14:01:55.005Z,27.40
2019-04-20T14:04:26.608Z,27.40
2019-04-20T14:06:59.502Z,27.20
2019-04-20T14:09:29.707Z,27.30
2019-04-20T14:12:13.188Z,27.20
2019-04-20T14:14:31.066Z,27.10
2019-04-20T14:17:01.172Z,27.20
2019-04-20T14:19:31.447Z,27.20
2019-04-20T14:22:02.172Z,27.30
2019-04-20T14:24:33.051Z,27.10
2019-04-20T14:27:03.355Z,27.00
2019-04-20T14:29:32.864Z,27.00
2019-04-20T14:32:04.220Z,27.00
2019-04-20T14:34:33.390Z,26.90
2019-04-20T14:37:03.115Z,26.90
2019-04-20T14:39:32.432Z,26.80
2019-04-20T14:42:02.429Z,26.70
2019-04-20T14:44:32.123Z,26.60
2019-04-20T14:47:03.638Z,26.60
2019-04-20T14:49:34.387Z,26.50
2019-04-20T14:52:06.194Z,26.30
2019-04-20T14:54:37.206Z,26.40
2019-04-20T14:57:07.724Z,26.30
2019-04-20T14:59:38.909Z,26.10
2019-04-20T15:02:12.850Z,26.00
2019-04-20T15:04:43.270Z,25.80
2019-04-20T15:07:13.097Z,26.50
2019-04-20T15:09:42.902Z,26.00
2019-04-20T15:12:13.045Z,25.90
2019-04-20T15:14:42.789Z,25.70
2019-04-20T15:17:15.362Z,25.60
2019-04-20T15:19:49.597Z,25.60
2019-04-20T15:22:37.586Z,25.40
2019-04-20T15:25:09.489Z,25.40
2019-04-20T15:27:42.513Z,25.30
2019-04-20T15:30:11.968Z,25.10
2019-04-20T15:32:41.456Z,24.90
2019-04-20T15:35:11.279Z,24.60
2019-04-20T15:37:43.154Z,24.20
2019-04-20T15:40:13.569Z,24.00
2019-04-20T15:42:56.137Z,24.00
2019-04-20T15:45:15.707Z,23.60
2019-04-20T15:47:46.336Z,23.30
2019-04-20T15:50:16.085Z,23.30
2019-04-20T15:52:50.861Z,23.30
2019-04-20T15:55:21.538Z,23.40
2019-04-20T15:57:48.249Z,23.90
2019-04-20T16:00:18.653Z,23.40
2019-04-20T16:03:03.229Z,23.40
2019-04-20T16:05:35.593Z,23.50
2019-04-20T16:08:26.026Z,23.60
2019-04-20T16:10:57.227Z,24.00
2019-04-20T16:13:33.847Z,24.20
2019-04-20T16:15:58.125Z,23.60
2019-04-20T16:18:27.807Z,23.70
2019-04-20T16:21:05.454Z,23.70
2019-04-20T16:23:30.448Z,23.70
2019-04-20T16:26:13.912Z,23.60
2019-04-20T16:28:43.756Z,23.50
2019-04-20T16:31:15.326Z,23.60
2019-04-20T16:33:44.566Z,23.70
2019-04-20T16:36:14.532Z,23.50
2019-04-20T16:38:45.503Z,23.60
2019-04-20T16:41:15.386Z,23.50
2019-04-20T16:43:46.383Z,23.60
2019-04-20T16:46:19.913Z,23.70
2019-04-20T16:48:48.189Z,23.70
2019-04-20T16:51:18.790Z,23.60
2019-04-20T16:53:48.158Z,23.80
2019-04-20T16:56:19.455Z,23.80
2019-04-20T16:58:54.750Z,23.90
2019-04-20T17:01:21.463Z,23.70
2019-04-20T17:03:59.794Z,23.90
2019-04-20T17:06:22.419Z,23.90
2019-04-20T17:08:51.764Z,24.20
2019-04-20T17:11:21.760Z,24.20
2019-04-20T17:13:53.748Z,24.30
2019-04-20T17:16:23.530Z,24.50
2019-04-20T17:18:53.228Z,24.60
2019-04-20T17:21:25.835Z,24.70
2019-04-20T17:23:53.738Z,24.80
2019-04-20T17:26:29.628Z,24.90
2019-04-20T17:29:03.964Z,25.00
2019-04-20T17:31:53.614Z,25.10
2019-04-20T17:34:41.107Z,25.10
2019-04-20T17:36:54.648Z,25.20
2019-04-20T17:39:33.893Z,25.30
2019-04-20T17:42:12.803Z,25.20
2019-04-20T17:44:41.398Z,25.30
2019-04-20T17:47:09.864Z,25.30
2019-04-20T17:49:41.355Z,25.40
2019-04-20T17:52:26.309Z,25.50
2019-04-20T17:54:35.488Z,25.50
2019-04-20T17:57:07.826Z,25.60
2019-04-20T17:59:38.119Z,25.70
2019-04-20T18:02:20.432Z,25.90
2019-04-20T18:05:15.970Z,26.00
2019-04-20T18:07:41.291Z,26.10
2019-04-20T18:10:12.694Z,26.30
2019-04-20T18:12:31.130Z,26.40
2019-04-20T18:15:10.213Z,26.50
2019-04-20T18:17:55.023Z,26.60
2019-04-20T18:20:09.337Z,26.60
2019-04-20T18:22:44.189Z,26.70
2019-04-20T18:25:31.404Z,26.80
2019-04-20T18:28:02.342Z,26.90
2019-04-20T18:30:35.722Z,26.70
2019-04-20T18:32:51.476Z,27.10
2019-04-20T18:35:22.606Z,26.70
2019-04-20T18:37:59.265Z,27.10
2019-04-20T18:40:32.549Z,27.30
2019-04-20T18:43:03.943Z,27.40
2019-04-20T18:45:41.038Z,27.50
2019-04-20T18:48:18.417Z,27.60
2019-04-20T18:50:34.663Z,27.60
2019-04-20T18:53:00.123Z,27.80
2019-04-20T18:55:40.869Z,28.00
2019-04-20T18:58:01.524Z,28.10
2019-04-20T19:00:34.760Z,28.20
2019-04-20T19:03:12.808Z,28.30
2019-04-20T19:05:35.661Z,28.40
2019-04-20T19:08:10.375Z,28.40
2019-04-20T19:10:39.830Z,28.60
2019-04-20T19:13:15.034Z,28.70
2019-04-20T19:16:09.414Z,28.70
2019-04-20T19:18:57.443Z,28.80
2019-04-20T19:21:11.053Z,28.90
2019-04-20T19:23:50.292Z,28.50
2019-04-20T19:26:16.311Z,28.90
2019-04-20T19:28:49.778Z,29.10
2019-04-20T19:31:30.760Z,29.20
2019-04-20T19:34:07.531Z,29.20
2019-04-20T19:36:28.096Z,29.20
2019-04-20T19:39:01.794Z,29.30
2019-04-20T19:41:31.960Z,29.40
2019-04-20T19:44:04.111Z,29.60
2019-04-20T19:46:53.773Z,29.70
2019-04-20T19:49:01.338Z,29.80
2019-04-20T19:51:47.949Z,29.90
2019-04-20T19:54:17.950Z,30.10
2019-04-20T19:56:44.203Z,30.20
2019-04-20T19:59:14.717Z,30.40
2019-04-20T20:01:29.525Z,30.50
2019-04-20T20:04:03.910Z,30.70
2019-04-20T20:06:41.388Z,30.90
2019-04-20T20:09:06.736Z,31.00
2019-04-20T20:11:37.370Z,31.10
2019-04-20T20:14:09.097Z,31.10
2019-04-20T20:16:57.666Z,31.20
2019-04-20T20:19:14.279Z,31.40
2019-04-20T20:21:58.108Z,31.60
2019-04-20T20:24:12.236Z,31.70
2019-04-20T20:26:48.778Z,31.80
2019-04-20T20:29:23.202Z,31.80
2019-04-20T20:31:57.782Z,32.00
2019-04-20T20:34:24.573Z,32.00
2019-04-20T20:36:53.882Z,32.10
2019-04-20T20:39:24.229Z,32.20
2019-04-20T20:41:59.357Z,32.50
2019-04-20T20:44:33.066Z,32.50
2019-04-20T20:46:55.050Z,32.70
2019-04-20T20:49:40.267Z,32.70
2019-04-20T20:52:11.954Z,33.00
2019-04-20T20:54:34.681Z,33.00
2019-04-20T20:57:01.401Z,33.00
2019-04-20T20:59:39.379Z,33.00
2019-04-20T21:02:06.856Z,33.20
2019-04-20T21:04:27.984Z,33.30
2019-04-20T21:06:58.325Z,33.40
2019-04-20T21:09:29.315Z,33.40
2019-04-20T21:12:06.535Z,33.40
2019-04-20T21:14:33.568Z,33.40
2019-04-20T21:17:10.099Z,33.50
2019-04-20T21:19:50.860Z,33.50
2019-04-20T21:22:11.534Z,33.40
2019-04-20T21:24:36.178Z,33.70
2019-04-20T21:27:10.405Z,33.60
2019-04-20T21:29:43.504Z,33.70
2019-04-20T21:32:12.557Z,33.70
2019-04-20T21:34:44.462Z,33.80
2019-04-20T21:37:15.161Z,33.80
2019-04-20T21:39:46.456Z,33.80
2019-04-20T21:42:19.074Z,33.80
2019-04-20T21:44:48.196Z,33.80
2019-04-20T21:47:22.284Z,34.00
2019-04-20T21:49:58.089Z,34.00
2019-04-20T21:52:24.831Z,34.10
2019-04-20T21:54:49.887Z,34.10
2019-04-20T21:57:20.401Z,34.20
2019-04-20T21:59:53.794Z,34.20
2019-04-20T22:02:26.391Z,34.10
2019-04-20T22:04:53.407Z,34.20
2019-04-20T22:07:23.506Z,34.20
2019-04-20T22:09:54.733Z,34.20
2019-04-20T22:12:28.543Z,34.30
2019-04-20T22:15:02.916Z,34.40
2019-04-20T22:17:30.959Z,34.50
2019-04-20T22:20:10.259Z,34.40
2019-04-20T22:22:45.468Z,34.50
2019-04-20T22:25:16.253Z,34.60
2019-04-20T22:27:34.855Z,34.60
2019-04-20T22:30:02.257Z,34.70
2019-04-20T22:32:32.262Z,34.70
2019-04-20T22:35:07.215Z,34.70
2019-04-20T22:37:36.646Z,34.80
2019-04-20T22:40:11.822Z,34.90
2019-04-20T22:42:46.477Z,34.80
2019-04-20T22:45:13.710Z,34.50
2019-04-20T22:47:42.627Z,35.00
2019-04-20T22:50:25.454Z,35.00
2019-04-20T22:52:55.302Z,35.10
2019-04-20T22:55:37.631Z,35.60
2019-04-20T22:57:58.542Z,35.20
2019-04-20T23:00:31.275Z,35.20
2019-04-20T23:02:52.172Z,35.20
2019-04-20T23:05:22.767Z,35.10
2019-04-20T23:07:53.067Z,35.20
2019-04-20T23:10:27.939Z,35.30
2019-04-20T23:12:57.485Z,35.30
2019-04-20T23:15:25.962Z,35.20
2019-04-20T23:17:55.914Z,35.20
2019-04-20T23:20:31.808Z,35.20
2019-04-20T23:22:56.913Z,35.20
2019-04-20T23:25:27.130Z,35.20
2019-04-20T23:28:00.192Z,35.30
2019-04-20T23:30:31.405Z,35.20
2019-04-20T23:33:02.159Z,35.20
2019-04-20T23:35:32.084Z,35.10
2019-04-20T23:38:11.179Z,35.30
2019-04-20T23:40:34.233Z,35.30
2019-04-20T23:43:17.764Z,35.30
2019-04-20T23:45:52.673Z,35.40
2019-04-20T23:48:28.499Z,35.40
2019-04-20T23:51:09.940Z,35.30
2019-04-20T23:53:40.254Z,35.40
2019-04-20T23:55:59.580Z,35.40
2019-04-20T23:58:30.952Z,35.40
